sensor_id;sensor_type;location;lat;lon;timestamp;temperature;humidity
54409;DHT22;40315;48.620;9.828;2023-02-01T00:00:03;4.20;99.90
54409;DHT22;40315;48.620;9.828;2023-02-01T00:04:59;4.20;99.90
54409;DHT22;40315;48.620;9.828;2023-02-01T00:07:26;4.40;99.90
54409;DHT22;40315;48.620;9.828;2023-02-01T00:09:53;4.10;99.90
54409;DHT22;40315;48.620;9.828;2023-02-01T00:12:20;5.10;99.90
54409;DHT22;40315;48.620;9.828;2023-02-01T00:14:47;4.10;99.90
54409;DHT22;40315;48.620;9.828;2023-02-01T00:17:15;4.10;99.90
54409;DHT22;40315;48.620;9.828;2023-02-01T00:19:43;4.10;99.90
54409;DHT22;40315;48.620;9.828;2023-02-01T00:22:10;4.10;99.90
54409;DHT22;40315;48.620;9.828;2023-02-01T00:24:37;4.00;99.90
54409;DHT22;40315;48.620;9.828;2023-02-01T00:29:34;4.10;99.90
54409;DHT22;40315;48.620;9.828;2023-02-01T00:32:01;4.10;99.90
54409;DHT22;40315;48.620;9.828;2023-02-01T00:34:28;4.50;99.90
54409;DHT22;40315;48.620;9.828;2023-02-01T00:39:26;4.10;99.90
54409;DHT22;40315;48.620;9.828;2023-02-01T00:41:55;4.10;99.90
54409;DHT22;40315;48.620;9.828;2023-02-01T00:44:22;4.10;99.90
54409;DHT22;40315;48.620;9.828;2023-02-01T00:46:48;4.70;99.90
54409;DHT22;40315;48.620;9.828;2023-02-01T00:49:16;4.00;99.90
54409;DHT22;40315;48.620;9.828;2023-02-01T00:51:43;4.00;99.90
54409;DHT22;40315;48.620;9.828;2023-02-01T00:54:11;4.00;99.90
54409;DHT22;40315;48.620;9.828;2023-02-01T00:56:38;4.00;99.90
54409;DHT22;40315;48.620;9.828;2023-02-01T00:59:05;4.60;99.90
54409;DHT22;40315;48.620;9.828;2023-02-01T01:01:32;4.10;99.90
54409;DHT22;40315;48.620;9.828;2023-02-01T01:03:59;4.10;99.90
54409;DHT22;40315;48.620;9.828;2023-02-01T01:06:29;4.00;99.90
54409;DHT22;40315;48.620;9.828;2023-02-01T01:08:58;4.10;99.90
54409;DHT22;40315;48.620;9.828;2023-02-01T01:11:30;4.10;99.90
54409;DHT22;40315;48.620;9.828;2023-02-01T01:13:58;4.10;99.90
54409;DHT22;40315;48.620;9.828;2023-02-01T01:16:29;4.10;99.90
54409;DHT22;40315;48.620;9.828;2023-02-01T01:18:57;4.10;99.90
54409;DHT22;40315;48.620;9.828;2023-02-01T01:21:25;4.10;99.90
54409;DHT22;40315;48.620;9.828;2023-02-01T01:23:53;4.10;99.90
54409;DHT22;40315;48.620;9.828;2023-02-01T01:26:21;4.70;99.90
54409;DHT22;40315;48.620;9.828;2023-02-01T01:28:50;4.10;99.90
54409;DHT22;40315;48.620;9.828;2023-02-01T01:31:18;4.10;99.90
54409;DHT22;40315;48.620;9.828;2023-02-01T01:33:48;4.50;99.90
54409;DHT22;40315;48.620;9.828;2023-02-01T01:36:16;4.20;99.90
54409;DHT22;40315;48.620;9.828;2023-02-01T01:38:43;4.20;99.90
54409;DHT22;40315;48.620;9.828;2023-02-01T01:41:15;4.20;99.90
54409;DHT22;40315;48.620;9.828;2023-02-01T01:50:31;4.10;99.90
54409;DHT22;40315;48.620;9.828;2023-02-01T01:53:01;4.10;99.90
54409;DHT22;40315;48.620;9.828;2023-02-01T01:55:32;4.40;99.90
54409;DHT22;40315;48.620;9.828;2023-02-01T01:58:03;6.20;99.90
54409;DHT22;40315;48.620;9.828;2023-02-01T02:03:15;4.20;99.90
54409;DHT22;40315;48.620;9.828;2023-02-01T02:05:46;4.20;99.90
54409;DHT22;40315;48.620;9.828;2023-02-01T02:08:15;4.90;99.90
54409;DHT22;40315;48.620;9.828;2023-02-01T02:10:42;4.20;99.90
54409;DHT22;40315;48.620;9.828;2023-02-01T02:13:31;4.20;99.90
54409;DHT22;40315;48.620;9.828;2023-02-01T02:16:10;4.10;99.90
54409;DHT22;40315;48.620;9.828;2023-02-01T02:18:52;4.20;99.90
54409;DHT22;40315;48.620;9.828;2023-02-01T02:21:45;4.10;99.90
54409;DHT22;40315;48.620;9.828;2023-02-01T02:24:45;4.20;99.90
54409;DHT22;40315;48.620;9.828;2023-02-01T02:27:22;4.10;99.90
54409;DHT22;40315;48.620;9.828;2023-02-01T02:36:00;4.20;99.90
54409;DHT22;40315;48.620;9.828;2023-02-01T02:38:33;4.20;99.90
54409;DHT22;40315;48.620;9.828;2023-02-01T02:41:14;4.20;99.90
54409;DHT22;40315;48.620;9.828;2023-02-01T02:44:09;4.20;99.90
54409;DHT22;40315;48.620;9.828;2023-02-01T02:47:00;4.20;99.90
54409;DHT22;40315;48.620;9.828;2023-02-01T02:49:52;4.60;99.90
54409;DHT22;40315;48.620;9.828;2023-02-01T02:52:38;4.30;99.90
54409;DHT22;40315;48.620;9.828;2023-02-01T02:55:27;4.20;99.90
54409;DHT22;40315;48.620;9.828;2023-02-01T02:57:56;4.30;99.90
54409;DHT22;40315;48.620;9.828;2023-02-01T03:00:43;4.30;99.90
54409;DHT22;40315;48.620;9.828;2023-02-01T03:03:28;4.20;99.90
54409;DHT22;40315;48.620;9.828;2023-02-01T03:06:16;4.30;99.90
54409;DHT22;40315;48.620;9.828;2023-02-01T03:08:44;4.30;99.90
54409;DHT22;40315;48.620;9.828;2023-02-01T03:11:13;4.20;99.90
54409;DHT22;40315;48.620;9.828;2023-02-01T03:13:44;4.30;99.90
54409;DHT22;40315;48.620;9.828;2023-02-01T03:16:14;4.30;99.90
54409;DHT22;40315;48.620;9.828;2023-02-01T03:18:49;4.20;99.90
54409;DHT22;40315;48.620;9.828;2023-02-01T03:21:22;4.20;99.90
54409;DHT22;40315;48.620;9.828;2023-02-01T03:23:53;4.30;99.90
54409;DHT22;40315;48.620;9.828;2023-02-01T03:26:25;4.30;99.90
54409;DHT22;40315;48.620;9.828;2023-02-01T03:28:56;4.30;99.90
54409;DHT22;40315;48.620;9.828;2023-02-01T03:31:27;4.30;99.90
54409;DHT22;40315;48.620;9.828;2023-02-01T03:33:55;4.30;99.90
54409;DHT22;40315;48.620;9.828;2023-02-01T03:36:28;4.30;99.90
54409;DHT22;40315;48.620;9.828;2023-02-01T03:39:02;4.30;99.90
54409;DHT22;40315;48.620;9.828;2023-02-01T03:41:35;4.30;99.90
54409;DHT22;40315;48.620;9.828;2023-02-01T03:44:11;4.20;99.90
54409;DHT22;40315;48.620;9.828;2023-02-01T03:46:43;4.10;99.90
54409;DHT22;40315;48.620;9.828;2023-02-01T03:49:19;4.00;99.90
54409;DHT22;40315;48.620;9.828;2023-02-01T03:51:50;4.50;99.90
54409;DHT22;40315;48.620;9.828;2023-02-01T03:54:18;3.80;99.90
54409;DHT22;40315;48.620;9.828;2023-02-01T03:56:47;3.80;99.90
54409;DHT22;40315;48.620;9.828;2023-02-01T03:59:15;3.80;99.90
54409;DHT22;40315;48.620;9.828;2023-02-01T04:01:42;3.90;99.90
54409;DHT22;40315;48.620;9.828;2023-02-01T04:04:09;4.80;99.90
54409;DHT22;40315;48.620;9.828;2023-02-01T04:06:45;3.80;99.90
54409;DHT22;40315;48.620;9.828;2023-02-01T04:09:14;3.80;99.90
54409;DHT22;40315;48.620;9.828;2023-02-01T04:11:41;3.80;99.90
54409;DHT22;40315;48.620;9.828;2023-02-01T04:14:08;3.90;99.90
54409;DHT22;40315;48.620;9.828;2023-02-01T04:16:35;4.10;99.90
54409;DHT22;40315;48.620;9.828;2023-02-01T04:19:05;4.00;99.90
54409;DHT22;40315;48.620;9.828;2023-02-01T04:21:32;3.90;99.90
54409;DHT22;40315;48.620;9.828;2023-02-01T04:23:59;3.80;99.90
54409;DHT22;40315;48.620;9.828;2023-02-01T04:26:27;3.90;99.90
54409;DHT22;40315;48.620;9.828;2023-02-01T04:28:54;3.90;99.90
54409;DHT22;40315;48.620;9.828;2023-02-01T04:31:21;4.00;99.90
54409;DHT22;40315;48.620;9.828;2023-02-01T04:33:51;4.00;99.90
54409;DHT22;40315;48.620;9.828;2023-02-01T04:36:19;4.00;99.90
54409;DHT22;40315;48.620;9.828;2023-02-01T04:38:47;4.00;99.90
54409;DHT22;40315;48.620;9.828;2023-02-01T04:41:14;4.00;99.90
54409;DHT22;40315;48.620;9.828;2023-02-01T04:43:47;4.00;99.90
54409;DHT22;40315;48.620;9.828;2023-02-01T04:46:15;4.00;99.90
54409;DHT22;40315;48.620;9.828;2023-02-01T04:48:42;4.10;99.90
54409;DHT22;40315;48.620;9.828;2023-02-01T04:51:09;4.10;99.90
54409;DHT22;40315;48.620;9.828;2023-02-01T04:53:36;4.10;99.90
54409;DHT22;40315;48.620;9.828;2023-02-01T04:56:05;4.10;99.90
54409;DHT22;40315;48.620;9.828;2023-02-01T04:58:34;4.10;99.90
54409;DHT22;40315;48.620;9.828;2023-02-01T05:01:04;4.10;99.90
54409;DHT22;40315;48.620;9.828;2023-02-01T05:03:32;4.10;99.90
54409;DHT22;40315;48.620;9.828;2023-02-01T05:06:02;4.10;99.90
54409;DHT22;40315;48.620;9.828;2023-02-01T05:08:31;4.20;99.90
54409;DHT22;40315;48.620;9.828;2023-02-01T05:10:58;4.20;99.90
54409;DHT22;40315;48.620;9.828;2023-02-01T05:13:28;4.20;99.90
54409;DHT22;40315;48.620;9.828;2023-02-01T05:16:17;4.20;99.90
54409;DHT22;40315;48.620;9.828;2023-02-01T05:18:44;4.10;99.90
54409;DHT22;40315;48.620;9.828;2023-02-01T05:21:12;4.10;99.90
54409;DHT22;40315;48.620;9.828;2023-02-01T05:23:39;4.20;99.90
54409;DHT22;40315;48.620;9.828;2023-02-01T05:26:24;4.10;99.90
54409;DHT22;40315;48.620;9.828;2023-02-01T05:28:51;4.10;99.90
54409;DHT22;40315;48.620;9.828;2023-02-01T05:33:47;4.20;99.90
54409;DHT22;40315;48.620;9.828;2023-02-01T05:36:14;4.30;99.90
54409;DHT22;40315;48.620;9.828;2023-02-01T05:38:41;4.30;99.90
54409;DHT22;40315;48.620;9.828;2023-02-01T05:41:08;4.30;99.90
54409;DHT22;40315;48.620;9.828;2023-02-01T05:43:35;4.30;99.90
54409;DHT22;40315;48.620;9.828;2023-02-01T05:46:02;4.40;99.90
54409;DHT22;40315;48.620;9.828;2023-02-01T05:48:31;4.40;99.90
54409;DHT22;40315;48.620;9.828;2023-02-01T05:50:58;4.40;99.90
54409;DHT22;40315;48.620;9.828;2023-02-01T05:53:25;4.40;99.90
54409;DHT22;40315;48.620;9.828;2023-02-01T05:55:52;4.30;99.90
54409;DHT22;40315;48.620;9.828;2023-02-01T05:58:22;4.60;99.90
54409;DHT22;40315;48.620;9.828;2023-02-01T06:00:49;4.60;99.90
54409;DHT22;40315;48.620;9.828;2023-02-01T06:03:16;4.40;99.90
54409;DHT22;40315;48.620;9.828;2023-02-01T06:05:45;4.50;99.90
54409;DHT22;40315;48.620;9.828;2023-02-01T06:08:12;4.50;99.90
54409;DHT22;40315;48.620;9.828;2023-02-01T06:10:40;4.50;99.90
54409;DHT22;40315;48.620;9.828;2023-02-01T06:13:09;4.50;99.90
54409;DHT22;40315;48.620;9.828;2023-02-01T06:15:37;4.60;99.90
54409;DHT22;40315;48.620;9.828;2023-02-01T06:18:04;4.60;99.90
54409;DHT22;40315;48.620;9.828;2023-02-01T06:20:31;4.50;99.90
54409;DHT22;40315;48.620;9.828;2023-02-01T06:22:59;4.50;99.90
54409;DHT22;40315;48.620;9.828;2023-02-01T06:25:26;4.50;99.90
54409;DHT22;40315;48.620;9.828;2023-02-01T06:27:53;4.50;99.90
54409;DHT22;40315;48.620;9.828;2023-02-01T06:30:20;4.50;99.90
54409;DHT22;40315;48.620;9.828;2023-02-01T06:32:50;4.50;99.90
54409;DHT22;40315;48.620;9.828;2023-02-01T06:35:19;4.60;99.90
54409;DHT22;40315;48.620;9.828;2023-02-01T06:37:46;4.50;99.90
54409;DHT22;40315;48.620;9.828;2023-02-01T06:40:18;4.50;99.90
54409;DHT22;40315;48.620;9.828;2023-02-01T06:42:45;4.40;99.90
54409;DHT22;40315;48.620;9.828;2023-02-01T06:45:19;4.30;99.90
54409;DHT22;40315;48.620;9.828;2023-02-01T06:47:46;4.20;99.90
54409;DHT22;40315;48.620;9.828;2023-02-01T06:50:13;4.30;99.90
54409;DHT22;40315;48.620;9.828;2023-02-01T06:52:40;4.20;99.90
54409;DHT22;40315;48.620;9.828;2023-02-01T06:55:08;4.10;99.90
54409;DHT22;40315;48.620;9.828;2023-02-01T06:57:39;4.20;99.90
54409;DHT22;40315;48.620;9.828;2023-02-01T07:00:10;4.20;99.90
54409;DHT22;40315;48.620;9.828;2023-02-01T07:02:37;4.10;99.90
54409;DHT22;40315;48.620;9.828;2023-02-01T07:05:08;4.10;99.90
54409;DHT22;40315;48.620;9.828;2023-02-01T07:07:35;4.00;99.90
54409;DHT22;40315;48.620;9.828;2023-02-01T07:10:02;4.20;99.90
54409;DHT22;40315;48.620;9.828;2023-02-01T07:12:29;4.10;99.90
54409;DHT22;40315;48.620;9.828;2023-02-01T07:14:58;4.10;99.90
54409;DHT22;40315;48.620;9.828;2023-02-01T07:17:25;4.80;99.90
54409;DHT22;40315;48.620;9.828;2023-02-01T07:19:52;4.20;99.90
54409;DHT22;40315;48.620;9.828;2023-02-01T07:22:21;5.60;99.90
54409;DHT22;40315;48.620;9.828;2023-02-01T07:24:48;4.20;99.90
54409;DHT22;40315;48.620;9.828;2023-02-01T07:27:15;4.20;99.90
54409;DHT22;40315;48.620;9.828;2023-02-01T07:29:44;4.30;99.90
54409;DHT22;40315;48.620;9.828;2023-02-01T07:32:15;4.30;99.90
54409;DHT22;40315;48.620;9.828;2023-02-01T07:34:43;4.40;99.90
54409;DHT22;40315;48.620;9.828;2023-02-01T07:37:10;4.50;99.90
54409;DHT22;40315;48.620;9.828;2023-02-01T07:39:40;4.60;99.90
54409;DHT22;40315;48.620;9.828;2023-02-01T07:42:07;5.40;99.90
54409;DHT22;40315;48.620;9.828;2023-02-01T07:44:34;4.60;99.90
54409;DHT22;40315;48.620;9.828;2023-02-01T07:47:01;4.70;99.90
54409;DHT22;40315;48.620;9.828;2023-02-01T07:49:30;4.70;99.90
54409;DHT22;40315;48.620;9.828;2023-02-01T07:51:57;4.80;99.90
54409;DHT22;40315;48.620;9.828;2023-02-01T07:54:29;4.70;99.90
54409;DHT22;40315;48.620;9.828;2023-02-01T07:56:57;4.80;99.90
54409;DHT22;40315;48.620;9.828;2023-02-01T07:59:24;4.80;99.90
54409;DHT22;40315;48.620;9.828;2023-02-01T08:01:51;4.80;99.90
54409;DHT22;40315;48.620;9.828;2023-02-01T08:04:17;4.80;99.90
54409;DHT22;40315;48.620;9.828;2023-02-01T08:06:45;4.70;99.90
54409;DHT22;40315;48.620;9.828;2023-02-01T08:09:13;4.80;99.90
54409;DHT22;40315;48.620;9.828;2023-02-01T08:11:40;4.80;99.90
54409;DHT22;40315;48.620;9.828;2023-02-01T08:14:07;4.80;99.90
54409;DHT22;40315;48.620;9.828;2023-02-01T08:16:34;5.10;99.90
54409;DHT22;40315;48.620;9.828;2023-02-01T08:19:03;4.80;99.90
54409;DHT22;40315;48.620;9.828;2023-02-01T08:21:34;4.80;99.90
54409;DHT22;40315;48.620;9.828;2023-02-01T08:24:09;4.80;99.90
54409;DHT22;40315;48.620;9.828;2023-02-01T08:26:36;4.80;99.90
54409;DHT22;40315;48.620;9.828;2023-02-01T08:29:05;4.80;99.90
54409;DHT22;40315;48.620;9.828;2023-02-01T08:31:32;4.90;99.90
54409;DHT22;40315;48.620;9.828;2023-02-01T08:34:02;4.90;99.90
54409;DHT22;40315;48.620;9.828;2023-02-01T08:36:30;4.80;99.90
54409;DHT22;40315;48.620;9.828;2023-02-01T08:38:58;4.90;99.90
54409;DHT22;40315;48.620;9.828;2023-02-01T08:41:28;4.90;99.90
54409;DHT22;40315;48.620;9.828;2023-02-01T08:43:58;4.90;99.90
54409;DHT22;40315;48.620;9.828;2023-02-01T08:46:25;4.90;99.90
54409;DHT22;40315;48.620;9.828;2023-02-01T08:48:52;5.00;99.90
54409;DHT22;40315;48.620;9.828;2023-02-01T08:51:21;5.10;99.90
54409;DHT22;40315;48.620;9.828;2023-02-01T08:53:49;6.30;99.90
54409;DHT22;40315;48.620;9.828;2023-02-01T08:56:17;5.20;99.90
54409;DHT22;40315;48.620;9.828;2023-02-01T08:58:48;5.20;99.90
54409;DHT22;40315;48.620;9.828;2023-02-01T09:01:16;5.30;99.90
54409;DHT22;40315;48.620;9.828;2023-02-01T09:03:44;5.30;99.90
54409;DHT22;40315;48.620;9.828;2023-02-01T09:06:12;5.30;99.90
54409;DHT22;40315;48.620;9.828;2023-02-01T09:08:43;5.30;99.90
54409;DHT22;40315;48.620;9.828;2023-02-01T09:11:13;5.30;99.90
54409;DHT22;40315;48.620;9.828;2023-02-01T09:13:41;5.30;99.90
54409;DHT22;40315;48.620;9.828;2023-02-01T09:16:09;5.30;99.90
54409;DHT22;40315;48.620;9.828;2023-02-01T09:18:37;5.30;99.90
54409;DHT22;40315;48.620;9.828;2023-02-01T09:21:04;5.20;99.90
54409;DHT22;40315;48.620;9.828;2023-02-01T09:23:35;5.30;99.90
54409;DHT22;40315;48.620;9.828;2023-02-01T09:26:03;5.30;99.90
54409;DHT22;40315;48.620;9.828;2023-02-01T09:28:30;5.30;99.90
54409;DHT22;40315;48.620;9.828;2023-02-01T09:30:58;5.30;99.90
54409;DHT22;40315;48.620;9.828;2023-02-01T09:33:27;5.40;99.90
54409;DHT22;40315;48.620;9.828;2023-02-01T09:35:57;5.40;99.90
54409;DHT22;40315;48.620;9.828;2023-02-01T09:38:26;5.40;99.90
54409;DHT22;40315;48.620;9.828;2023-02-01T09:40:54;5.40;99.90
54409;DHT22;40315;48.620;9.828;2023-02-01T09:43:31;5.90;99.90
54409;DHT22;40315;48.620;9.828;2023-02-01T09:46:16;5.40;99.90
54409;DHT22;40315;48.620;9.828;2023-02-01T09:48:47;5.50;99.90
54409;DHT22;40315;48.620;9.828;2023-02-01T09:51:18;5.50;99.90
54409;DHT22;40315;48.620;9.828;2023-02-01T09:53:58;5.50;99.90
54409;DHT22;40315;48.620;9.828;2023-02-01T09:56:32;5.50;99.90
54409;DHT22;40315;48.620;9.828;2023-02-01T09:59:06;5.30;99.90
54409;DHT22;40315;48.620;9.828;2023-02-01T10:01:36;5.30;99.90
54409;DHT22;40315;48.620;9.828;2023-02-01T10:04:08;5.30;99.90
54409;DHT22;40315;48.620;9.828;2023-02-01T10:06:49;5.30;99.90
54409;DHT22;40315;48.620;9.828;2023-02-01T10:09:50;6.90;99.90
54409;DHT22;40315;48.620;9.828;2023-02-01T10:15:22;5.00;99.90
54409;DHT22;40315;48.620;9.828;2023-02-01T10:18:05;5.20;99.90
54409;DHT22;40315;48.620;9.828;2023-02-01T10:20:47;5.00;99.90
54409;DHT22;40315;48.620;9.828;2023-02-01T10:23:43;4.90;99.90
54409;DHT22;40315;48.620;9.828;2023-02-01T10:26:18;4.90;99.90
54409;DHT22;40315;48.620;9.828;2023-02-01T10:28:48;4.90;99.90
54409;DHT22;40315;48.620;9.828;2023-02-01T10:31:21;5.00;99.90
54409;DHT22;40315;48.620;9.828;2023-02-01T10:33:52;5.10;99.90
54409;DHT22;40315;48.620;9.828;2023-02-01T10:36:29;5.10;99.90
54409;DHT22;40315;48.620;9.828;2023-02-01T10:39:01;5.10;99.90
54409;DHT22;40315;48.620;9.828;2023-02-01T10:41:33;5.20;99.90
54409;DHT22;40315;48.620;9.828;2023-02-01T10:44:03;5.20;99.90
54409;DHT22;40315;48.620;9.828;2023-02-01T10:46:34;5.20;99.90
54409;DHT22;40315;48.620;9.828;2023-02-01T10:49:03;5.20;99.90
54409;DHT22;40315;48.620;9.828;2023-02-01T10:51:42;5.20;99.90
54409;DHT22;40315;48.620;9.828;2023-02-01T10:54:16;5.20;99.90
54409;DHT22;40315;48.620;9.828;2023-02-01T10:56:46;5.20;99.90
54409;DHT22;40315;48.620;9.828;2023-02-01T10:59:16;5.20;99.90
54409;DHT22;40315;48.620;9.828;2023-02-01T11:01:48;5.20;99.90
54409;DHT22;40315;48.620;9.828;2023-02-01T11:04:16;5.20;99.90
54409;DHT22;40315;48.620;9.828;2023-02-01T11:06:48;5.10;99.90
54409;DHT22;40315;48.620;9.828;2023-02-01T11:09:21;5.10;99.90
54409;DHT22;40315;48.620;9.828;2023-02-01T11:11:55;5.10;99.90
54409;DHT22;40315;48.620;9.828;2023-02-01T11:14:32;5.00;99.90
54409;DHT22;40315;48.620;9.828;2023-02-01T11:17:02;5.10;99.90
54409;DHT22;40315;48.620;9.828;2023-02-01T11:19:29;5.00;99.90
54409;DHT22;40315;48.620;9.828;2023-02-01T11:21:59;5.10;99.90
54409;DHT22;40315;48.620;9.828;2023-02-01T11:24:29;5.10;99.90
54409;DHT22;40315;48.620;9.828;2023-02-01T11:27:01;5.20;99.90
54409;DHT22;40315;48.620;9.828;2023-02-01T11:29:32;5.20;99.90
54409;DHT22;40315;48.620;9.828;2023-02-01T11:32:02;5.30;99.90
54409;DHT22;40315;48.620;9.828;2023-02-01T11:34:35;5.70;99.90
54409;DHT22;40315;48.620;9.828;2023-02-01T11:37:05;5.30;99.90
54409;DHT22;40315;48.620;9.828;2023-02-01T11:42:14;5.30;99.90
54409;DHT22;40315;48.620;9.828;2023-02-01T11:44:43;5.30;99.90
54409;DHT22;40315;48.620;9.828;2023-02-01T11:47:19;5.30;99.90
54409;DHT22;40315;48.620;9.828;2023-02-01T11:49:47;5.30;99.90
54409;DHT22;40315;48.620;9.828;2023-02-01T11:52:24;5.30;99.90
54409;DHT22;40315;48.620;9.828;2023-02-01T11:55:12;5.40;99.90
54409;DHT22;40315;48.620;9.828;2023-02-01T11:57:51;5.30;99.90
54409;DHT22;40315;48.620;9.828;2023-02-01T12:00:41;5.30;99.90
54409;DHT22;40315;48.620;9.828;2023-02-01T12:03:33;5.30;99.90
54409;DHT22;40315;48.620;9.828;2023-02-01T12:06:08;5.40;99.90
54409;DHT22;40315;48.620;9.828;2023-02-01T12:09:02;5.40;99.90
54409;DHT22;40315;48.620;9.828;2023-02-01T12:11:42;5.40;99.90
54409;DHT22;40315;48.620;9.828;2023-02-01T12:14:23;5.40;99.90
54409;DHT22;40315;48.620;9.828;2023-02-01T12:17:09;5.30;99.90
54409;DHT22;40315;48.620;9.828;2023-02-01T12:19:54;5.30;99.90
54409;DHT22;40315;48.620;9.828;2023-02-01T12:22:35;5.30;99.90
54409;DHT22;40315;48.620;9.828;2023-02-01T12:25:24;5.30;99.90
54409;DHT22;40315;48.620;9.828;2023-02-01T12:28:07;5.30;99.90
54409;DHT22;40315;48.620;9.828;2023-02-01T12:30:58;5.30;99.90
54409;DHT22;40315;48.620;9.828;2023-02-01T12:33:36;5.40;99.90
54409;DHT22;40315;48.620;9.828;2023-02-01T12:36:13;5.20;99.90
54409;DHT22;40315;48.620;9.828;2023-02-01T12:38:57;5.30;99.90
54409;DHT22;40315;48.620;9.828;2023-02-01T12:41:48;5.30;99.90
54409;DHT22;40315;48.620;9.828;2023-02-01T12:47:06;5.20;99.90
54409;DHT22;40315;48.620;9.828;2023-02-01T12:49:46;5.20;99.90
54409;DHT22;40315;48.620;9.828;2023-02-01T12:52:20;5.30;99.90
54409;DHT22;40315;48.620;9.828;2023-02-01T12:54:53;5.30;99.90
54409;DHT22;40315;48.620;9.828;2023-02-01T12:57:27;5.30;99.90
54409;DHT22;40315;48.620;9.828;2023-02-01T13:00:04;5.30;99.90
54409;DHT22;40315;48.620;9.828;2023-02-01T13:02:40;5.20;99.90
54409;DHT22;40315;48.620;9.828;2023-02-01T13:05:14;5.20;99.90
54409;DHT22;40315;48.620;9.828;2023-02-01T13:07:47;5.20;99.90
54409;DHT22;40315;48.620;9.828;2023-02-01T13:10:18;5.30;99.90
54409;DHT22;40315;48.620;9.828;2023-02-01T13:12:53;5.20;99.90
54409;DHT22;40315;48.620;9.828;2023-02-01T13:15:24;5.20;99.90
54409;DHT22;40315;48.620;9.828;2023-02-01T13:17:55;5.10;99.90
54409;DHT22;40315;48.620;9.828;2023-02-01T13:20:29;5.20;99.90
54409;DHT22;40315;48.620;9.828;2023-02-01T13:23:00;5.10;99.90
54409;DHT22;40315;48.620;9.828;2023-02-01T13:25:33;5.00;99.90
54409;DHT22;40315;48.620;9.828;2023-02-01T13:28:09;5.00;99.90
54409;DHT22;40315;48.620;9.828;2023-02-01T13:30:53;5.00;99.90
54409;DHT22;40315;48.620;9.828;2023-02-01T13:33:52;5.10;99.90
54409;DHT22;40315;48.620;9.828;2023-02-01T13:36:37;5.00;99.90
54409;DHT22;40315;48.620;9.828;2023-02-01T13:42:18;5.00;99.90
54409;DHT22;40315;48.620;9.828;2023-02-01T13:44:55;5.00;99.90
54409;DHT22;40315;48.620;9.828;2023-02-01T13:47:28;4.90;99.90
54409;DHT22;40315;48.620;9.828;2023-02-01T13:50:02;4.90;99.90
54409;DHT22;40315;48.620;9.828;2023-02-01T13:52:40;4.80;99.90
54409;DHT22;40315;48.620;9.828;2023-02-01T13:55:26;4.90;99.90
54409;DHT22;40315;48.620;9.828;2023-02-01T13:58:15;4.90;99.90
54409;DHT22;40315;48.620;9.828;2023-02-01T14:00:45;4.90;99.90
54409;DHT22;40315;48.620;9.828;2023-02-01T14:03:19;4.90;99.90
54409;DHT22;40315;48.620;9.828;2023-02-01T14:06:16;4.90;99.90
54409;DHT22;40315;48.620;9.828;2023-02-01T14:09:10;4.90;99.90
54409;DHT22;40315;48.620;9.828;2023-02-01T14:11:43;4.80;99.90
54409;DHT22;40315;48.620;9.828;2023-02-01T14:14:48;4.80;99.90
54409;DHT22;40315;48.620;9.828;2023-02-01T14:17:40;4.80;99.90
54409;DHT22;40315;48.620;9.828;2023-02-01T14:20:43;4.80;99.90
54409;DHT22;40315;48.620;9.828;2023-02-01T14:23:38;4.80;99.90
54409;DHT22;40315;48.620;9.828;2023-02-01T14:26:18;4.80;99.90
54409;DHT22;40315;48.620;9.828;2023-02-01T14:28:51;4.80;99.90
54409;DHT22;40315;48.620;9.828;2023-02-01T14:31:32;4.80;99.90
54409;DHT22;40315;48.620;9.828;2023-02-01T14:34:11;4.90;99.90
54409;DHT22;40315;48.620;9.828;2023-02-01T14:36:45;4.80;99.90
54409;DHT22;40315;48.620;9.828;2023-02-01T14:39:30;4.80;99.90
54409;DHT22;40315;48.620;9.828;2023-02-01T14:42:00;5.70;99.90
54409;DHT22;40315;48.620;9.828;2023-02-01T14:44:36;4.80;99.90
54409;DHT22;40315;48.620;9.828;2023-02-01T14:50:04;4.80;99.90
54409;DHT22;40315;48.620;9.828;2023-02-01T14:52:39;4.80;99.90
54409;DHT22;40315;48.620;9.828;2023-02-01T14:55:12;4.90;99.90
54409;DHT22;40315;48.620;9.828;2023-02-01T14:57:41;4.80;99.90
54409;DHT22;40315;48.620;9.828;2023-02-01T15:00:19;4.80;99.90
54409;DHT22;40315;48.620;9.828;2023-02-01T15:02:48;4.80;99.90
54409;DHT22;40315;48.620;9.828;2023-02-01T15:05:31;4.80;99.90
54409;DHT22;40315;48.620;9.828;2023-02-01T15:08:05;4.80;99.90
54409;DHT22;40315;48.620;9.828;2023-02-01T15:10:40;4.80;99.90
54409;DHT22;40315;48.620;9.828;2023-02-01T15:13:18;4.90;99.90
54409;DHT22;40315;48.620;9.828;2023-02-01T15:16:00;4.90;99.90
54409;DHT22;40315;48.620;9.828;2023-02-01T15:18:30;4.90;99.90
54409;DHT22;40315;48.620;9.828;2023-02-01T15:21:02;4.90;99.90
54409;DHT22;40315;48.620;9.828;2023-02-01T15:23:33;4.80;99.90
54409;DHT22;40315;48.620;9.828;2023-02-01T15:26:00;4.90;99.90
54409;DHT22;40315;48.620;9.828;2023-02-01T15:28:27;4.90;99.90
54409;DHT22;40315;48.620;9.828;2023-02-01T15:30:58;4.90;99.90
54409;DHT22;40315;48.620;9.828;2023-02-01T15:33:29;4.80;99.90
54409;DHT22;40315;48.620;9.828;2023-02-01T15:36:09;4.80;99.90
54409;DHT22;40315;48.620;9.828;2023-02-01T15:38:39;4.80;99.90
54409;DHT22;40315;48.620;9.828;2023-02-01T15:41:09;4.80;99.90
54409;DHT22;40315;48.620;9.828;2023-02-01T15:43:38;4.80;99.90
54409;DHT22;40315;48.620;9.828;2023-02-01T15:46:12;4.80;99.90
54409;DHT22;40315;48.620;9.828;2023-02-01T15:48:43;4.80;99.90
54409;DHT22;40315;48.620;9.828;2023-02-01T15:51:17;5.50;99.90
54409;DHT22;40315;48.620;9.828;2023-02-01T15:53:51;4.80;99.90
54409;DHT22;40315;48.620;9.828;2023-02-01T15:56:24;4.80;99.90
54409;DHT22;40315;48.620;9.828;2023-02-01T15:58:54;4.80;99.90
54409;DHT22;40315;48.620;9.828;2023-02-01T16:01:22;4.80;99.90
54409;DHT22;40315;48.620;9.828;2023-02-01T16:03:50;4.80;99.90
54409;DHT22;40315;48.620;9.828;2023-02-01T16:06:31;4.70;99.90
54409;DHT22;40315;48.620;9.828;2023-02-01T16:09:02;4.70;99.90
54409;DHT22;40315;48.620;9.828;2023-02-01T16:11:31;4.80;99.90
54409;DHT22;40315;48.620;9.828;2023-02-01T16:13:59;4.90;99.90
54409;DHT22;40315;48.620;9.828;2023-02-01T16:16:28;4.70;99.90
54409;DHT22;40315;48.620;9.828;2023-02-01T16:18:58;4.70;99.90
54409;DHT22;40315;48.620;9.828;2023-02-01T16:21:25;4.60;99.90
54409;DHT22;40315;48.620;9.828;2023-02-01T16:23:53;4.60;99.90
54409;DHT22;40315;48.620;9.828;2023-02-01T16:28:48;4.60;99.90
54409;DHT22;40315;48.620;9.828;2023-02-01T16:31:17;4.60;99.90
54409;DHT22;40315;48.620;9.828;2023-02-01T16:33:47;4.60;99.90
54409;DHT22;40315;48.620;9.828;2023-02-01T16:36:15;4.60;99.90
54409;DHT22;40315;48.620;9.828;2023-02-01T16:38:42;4.60;99.90
54409;DHT22;40315;48.620;9.828;2023-02-01T16:41:13;4.60;99.90
54409;DHT22;40315;48.620;9.828;2023-02-01T16:43:40;4.50;99.90
54409;DHT22;40315;48.620;9.828;2023-02-01T16:46:13;4.60;99.90
54409;DHT22;40315;48.620;9.828;2023-02-01T16:48:46;4.60;99.90
54409;DHT22;40315;48.620;9.828;2023-02-01T16:51:16;4.50;99.90
54409;DHT22;40315;48.620;9.828;2023-02-01T16:53:44;4.60;99.90
54409;DHT22;40315;48.620;9.828;2023-02-01T16:56:15;4.60;99.90
54409;DHT22;40315;48.620;9.828;2023-02-01T16:58:45;4.60;99.90